createdAt,value
2023-04-18T00:01:42.622Z,9.80
2023-04-18T00:04:12.352Z,11.63
2023-04-18T00:06:42.097Z,12.05
2023-04-18T00:09:11.852Z,13.70
2023-04-18T00:11:41.428Z,13.85
2023-04-18T00:14:11.153Z,11.30
2023-04-18T00:16:41.047Z,14.48
2023-04-18T00:19:10.642Z,12.57
2023-04-18T00:21:45.180Z,11.23
2023-04-18T00:24:14.936Z,13.38
2023-04-18T00:26:44.379Z,12.32
2023-04-18T00:29:13.796Z,12.98
2023-04-18T00:31:43.198Z,14.50
2023-04-18T00:34:12.778Z,13.55
2023-04-18T00:36:42.455Z,15.50
2023-04-18T00:39:11.852Z,13.85
2023-04-18T00:41:41.291Z,13.32
2023-04-18T00:44:10.654Z,13.45
2023-04-18T00:46:40.082Z,11.65
2023-04-18T00:49:09.925Z,12.57
2023-04-18T00:51:39.423Z,13.75
2023-04-18T00:54:11.670Z,13.30
2023-04-18T00:56:41.749Z,11.27
2023-04-18T00:59:12.163Z,15.63
2023-04-18T01:01:43.799Z,12.00
2023-04-18T01:04:14.794Z,13.77
2023-04-18T01:06:45.741Z,14.50
2023-04-18T01:09:16.205Z,12.60
2023-04-18T01:11:47.455Z,15.02
2023-04-18T01:14:19.022Z,13.50
2023-04-18T01:16:49.120Z,12.60
2023-04-18T01:19:19.604Z,18.20
2023-04-18T01:21:49.076Z,12.98
2023-04-18T01:24:19.740Z,14.38
2023-04-18T01:26:50.738Z,13.60
2023-04-18T01:29:20.166Z,13.52
2023-04-18T01:31:49.712Z,13.65
2023-04-18T01:34:20.155Z,11.32
2023-04-18T01:36:49.584Z,15.20
2023-04-18T01:39:18.991Z,15.13
2023-04-18T01:41:48.500Z,13.85
2023-04-18T01:44:19.474Z,16.42
2023-04-18T01:46:48.889Z,13.75
2023-04-18T01:49:18.641Z,14.43
2023-04-18T01:51:48.076Z,13.18
2023-04-18T01:54:17.465Z,15.63
2023-04-18T01:56:46.842Z,15.15
2023-04-18T01:59:16.284Z,13.90
2023-04-18T02:01:47.193Z,15.88
2023-04-18T02:04:16.779Z,13.52
2023-04-18T02:06:48.888Z,13.88
2023-04-18T02:09:18.290Z,12.30
2023-04-18T02:11:47.700Z,17.25
2023-04-18T02:14:17.103Z,17.67
2023-04-18T02:16:47.268Z,16.63
2023-04-18T02:19:16.722Z,13.40
2023-04-18T02:21:46.167Z,15.52
2023-04-18T02:24:17.245Z,17.73
2023-04-18T02:26:46.988Z,13.75
2023-04-18T02:29:16.450Z,15.25
2023-04-18T02:31:45.941Z,12.25
2023-04-18T02:34:17.698Z,13.75
2023-04-18T02:36:47.150Z,12.23
2023-04-18T02:39:16.722Z,16.70
2023-04-18T02:41:46.105Z,16.27
2023-04-18T02:44:15.669Z,15.05
2023-04-18T02:46:46.763Z,13.55
2023-04-18T02:49:16.188Z,16.75
2023-04-18T02:51:47.414Z,13.40
2023-04-18T02:54:18.014Z,14.35
2023-04-18T02:56:57.166Z,16.15
2023-04-18T02:59:53.902Z,17.17
2023-04-18T03:02:46.530Z,13.32
2023-04-18T03:05:30.344Z,13.98
2023-04-18T03:08:03.255Z,15.43
2023-04-18T03:10:33.409Z,20.27
2023-04-18T03:13:03.143Z,13.77
2023-04-18T03:15:33.412Z,12.75
2023-04-18T03:18:02.922Z,19.45
2023-04-18T03:20:37.679Z,18.15
2023-04-18T03:23:09.380Z,13.10
2023-04-18T03:25:38.858Z,15.05
2023-04-18T03:28:08.266Z,19.55
2023-04-18T03:30:38.017Z,14.73
2023-04-18T03:33:08.934Z,16.63
2023-04-18T03:35:38.531Z,14.93
2023-04-18T03:38:08.159Z,14.98
2023-04-18T03:40:42.329Z,15.68
2023-04-18T03:43:19.093Z,18.80
2023-04-18T03:45:49.051Z,12.63
2023-04-18T03:50:50.252Z,13.38
2023-04-18T03:53:19.723Z,12.18
2023-04-18T03:55:49.290Z,13.82
2023-04-18T03:58:23.881Z,14.13
2023-04-18T04:00:54.735Z,15.15
2023-04-18T04:03:24.240Z,13.60
2023-04-18T04:05:53.978Z,13.38
2023-04-18T04:08:25.914Z,14.63
2023-04-18T04:10:57.229Z,13.30
2023-04-18T04:13:27.376Z,15.75
2023-04-18T04:15:57.323Z,12.40
2023-04-18T04:18:31.266Z,13.52
2023-04-18T04:21:03.192Z,14.93
2023-04-18T04:23:48.219Z,14.23
2023-04-18T04:26:28.736Z,16.65
2023-04-18T04:29:05.207Z,13.55
2023-04-18T04:31:36.800Z,11.68
2023-04-18T04:34:06.437Z,15.60
2023-04-18T04:36:36.213Z,13.82
2023-04-18T04:42:07.596Z,14.00
2023-04-18T04:44:46.229Z,10.73
2023-04-18T04:47:15.996Z,14.90
2023-04-18T04:49:47.021Z,14.05
2023-04-18T04:52:19.443Z,14.77
2023-04-18T04:54:48.993Z,15.23
2023-04-18T04:57:21.071Z,12.38
2023-04-18T04:59:50.787Z,16.33
2023-04-18T05:02:23.425Z,15.27
2023-04-18T05:04:53.138Z,14.15
2023-04-18T05:07:22.600Z,16.20
2023-04-18T05:09:53.423Z,18.00
2023-04-18T05:12:22.836Z,13.00
2023-04-18T05:14:54.987Z,16.08
2023-04-18T05:17:24.415Z,14.50
2023-04-18T05:19:53.874Z,15.25
2023-04-18T05:22:23.246Z,14.00
2023-04-18T05:24:52.674Z,14.80
2023-04-18T05:27:22.125Z,14.80
2023-04-18T05:29:51.592Z,14.10
2023-04-18T05:32:21.405Z,14.43
2023-04-18T05:34:51.475Z,17.13
2023-04-18T05:37:22.384Z,15.18
2023-04-18T05:39:51.884Z,14.48
2023-04-18T05:42:22.023Z,15.30
2023-04-18T05:44:51.492Z,15.45
2023-04-18T05:47:21.313Z,15.95
2023-04-18T05:49:50.851Z,14.80
2023-04-18T05:52:20.344Z,13.90
2023-04-18T05:54:49.708Z,18.48
2023-04-18T05:57:19.148Z,16.40
2023-04-18T05:59:48.571Z,15.77
2023-04-18T06:02:18.130Z,17.73
2023-04-18T06:04:48.855Z,14.18
2023-04-18T06:07:18.455Z,14.55
2023-04-18T06:09:48.856Z,15.40
2023-04-18T06:12:18.241Z,15.50
2023-04-18T06:14:47.710Z,14.93
2023-04-18T06:17:17.149Z,11.05
2023-04-18T06:19:46.578Z,15.98
2023-04-18T06:22:16.034Z,16.20
2023-04-18T06:24:45.517Z,11.93
2023-04-18T06:27:27.861Z,13.27
2023-04-18T06:30:00.433Z,16.77
2023-04-18T06:32:29.865Z,14.52
2023-04-18T06:34:59.488Z,16.00
2023-04-18T06:37:28.951Z,15.30
2023-04-18T06:39:58.811Z,14.27
2023-04-18T06:42:28.166Z,13.52
2023-04-18T06:44:57.571Z,13.45
2023-04-18T06:47:27.069Z,12.98
2023-04-18T06:49:56.683Z,13.10
2023-04-18T06:52:26.129Z,14.88
2023-04-18T06:54:55.570Z,13.80
2023-04-18T06:57:24.962Z,13.93
2023-04-18T06:59:54.390Z,11.55
2023-04-18T07:02:24.059Z,16.42
2023-04-18T07:04:53.538Z,13.15
2023-04-18T07:07:22.923Z,13.43
2023-04-18T07:09:53.748Z,14.88
2023-04-18T07:12:23.566Z,11.55
2023-04-18T07:14:53.474Z,14.73
2023-04-18T07:17:22.955Z,13.27
2023-04-18T07:19:52.689Z,15.25
2023-04-18T07:22:22.126Z,14.07
2023-04-18T07:24:51.520Z,11.85
2023-04-18T07:27:21.264Z,11.07
2023-04-18T07:29:50.702Z,10.68
2023-04-18T07:32:20.192Z,12.90
2023-04-18T07:34:49.641Z,9.45
2023-04-18T07:37:21.454Z,12.38
2023-04-18T07:39:51.573Z,12.60
2023-04-18T07:42:20.997Z,8.27
2023-04-18T07:44:50.614Z,10.77
2023-04-18T07:47:22.456Z,12.07
2023-04-18T07:49:52.046Z,11.18
2023-04-18T07:52:21.657Z,10.38
2023-04-18T07:54:51.339Z,11.25
2023-04-18T07:57:20.920Z,8.73
2023-04-18T07:59:53.873Z,10.18
2023-04-18T08:02:23.783Z,10.60
2023-04-18T08:04:53.666Z,11.00
2023-04-18T08:07:23.273Z,9.95
2023-04-18T08:09:52.740Z,9.65
2023-04-18T08:12:22.220Z,10.13
2023-04-18T08:14:51.621Z,9.10
2023-04-18T08:17:21.056Z,10.85
2023-04-18T08:19:50.585Z,13.02
2023-04-18T08:22:20.016Z,11.20
2023-04-18T08:25:03.262Z,10.00
2023-04-18T08:27:34.261Z,12.70
2023-04-18T08:30:04.894Z,8.05
2023-04-18T08:32:34.834Z,8.88
2023-04-18T08:35:04.501Z,9.52
2023-04-18T08:37:40.644Z,10.50
2023-04-18T08:40:10.514Z,11.75
2023-04-18T08:42:40.027Z,10.30
2023-04-18T08:45:09.725Z,8.98
2023-04-18T08:47:39.301Z,9.52
2023-04-18T08:50:09.450Z,9.32
2023-04-18T08:52:39.551Z,10.20
2023-04-18T08:55:09.640Z,10.20
2023-04-18T08:57:39.961Z,8.63
2023-04-18T09:00:11.797Z,8.05
2023-04-18T09:02:43.078Z,8.48
2023-04-18T09:05:16.347Z,9.57
2023-04-18T09:07:46.099Z,10.57
2023-04-18T09:10:15.914Z,9.40
2023-04-18T09:12:50.607Z,10.57
2023-04-18T09:15:23.415Z,9.52
2023-04-18T09:17:54.298Z,10.18
2023-04-18T09:20:34.980Z,9.45
2023-04-18T09:23:05.606Z,11.50
2023-04-18T09:25:46.853Z,9.35
2023-04-18T09:28:29.294Z,9.93
2023-04-18T09:30:59.875Z,10.02
2023-04-18T09:33:32.750Z,9.00
2023-04-18T09:36:20.972Z,8.45
2023-04-18T09:38:56.690Z,7.82
2023-04-18T09:41:27.758Z,8.15
2023-04-18T09:44:14.996Z,14.82
2023-04-18T09:46:47.605Z,9.48
2023-04-18T09:49:17.819Z,10.48
2023-04-18T09:51:47.727Z,9.50
2023-04-18T09:54:20.858Z,9.02
2023-04-18T09:56:54.248Z,9.13
2023-04-18T09:59:31.744Z,8.20
2023-04-18T10:02:02.430Z,8.77
2023-04-18T10:04:32.852Z,8.70
2023-04-18T10:07:02.687Z,8.05
2023-04-18T10:09:34.052Z,8.40
2023-04-18T10:12:04.198Z,7.18
2023-04-18T10:14:35.792Z,8.80
2023-04-18T10:17:05.251Z,9.05
2023-04-18T10:19:34.740Z,9.38
2023-04-18T10:22:04.709Z,8.45
2023-04-18T10:24:49.959Z,10.00
2023-04-18T10:27:20.092Z,9.10
2023-04-18T10:29:56.768Z,8.13
2023-04-18T10:32:26.424Z,6.50
2023-04-18T10:34:56.430Z,9.02
2023-04-18T10:37:25.824Z,9.10
2023-04-18T10:39:55.259Z,9.82
2023-04-18T10:42:44.861Z,9.10
2023-04-18T10:45:24.108Z,9.32
2023-04-18T10:47:53.654Z,9.68
2023-04-18T10:50:23.486Z,7.40
2023-04-18T10:52:53.003Z,10.00
2023-04-18T10:55:31.647Z,8.05
2023-04-18T10:58:01.550Z,9.35
2023-04-18T11:00:31.827Z,9.57
2023-04-18T11:03:01.389Z,9.07
2023-04-18T11:05:31.259Z,10.00
2023-04-18T11:08:00.632Z,12.10
2023-04-18T11:10:30.297Z,9.10
2023-04-18T11:13:04.795Z,10.15
2023-04-18T11:15:34.325Z,11.43
2023-04-18T11:18:07.738Z,10.00
2023-04-18T11:20:49.828Z,10.10
2023-04-18T11:23:25.206Z,10.20
2023-04-18T11:25:56.429Z,10.20
2023-04-18T11:28:26.692Z,10.10
2023-04-18T11:31:00.034Z,10.98
2023-04-18T11:33:31.438Z,12.15
2023-04-18T11:36:01.884Z,9.93
2023-04-18T11:38:32.881Z,10.63
2023-04-18T11:41:04.947Z,12.30
2023-04-18T11:43:34.353Z,12.15
2023-04-18T11:46:03.850Z,11.57
2023-04-18T11:48:37.226Z,12.60
2023-04-18T11:51:07.708Z,10.05
2023-04-18T11:53:37.954Z,10.60
2023-04-18T11:56:07.813Z,11.18
2023-04-18T11:58:37.417Z,13.02
2023-04-18T12:01:19.963Z,11.95
2023-04-18T12:06:18.909Z,10.77
2023-04-18T12:08:48.427Z,11.80
2023-04-18T12:11:22.894Z,12.40
2023-04-18T12:13:52.299Z,13.75
2023-04-18T12:16:22.010Z,11.05
2023-04-18T12:18:51.491Z,11.13
2023-04-18T12:21:21.422Z,11.23
2023-04-18T12:23:57.664Z,11.68
2023-04-18T12:26:27.638Z,12.07
2023-04-18T12:28:58.548Z,13.80
2023-04-18T12:31:28.978Z,13.65
2023-04-18T12:34:00.272Z,12.10
2023-04-18T12:36:29.753Z,13.07
2023-04-18T12:38:59.134Z,14.52
2023-04-18T12:41:28.522Z,13.80
2023-04-18T12:43:57.913Z,15.05
2023-04-18T12:46:27.401Z,15.43
2023-04-18T12:48:57.307Z,16.40
2023-04-18T12:51:27.988Z,16.88
2023-04-18T12:53:57.492Z,16.10
2023-04-18T12:56:26.924Z,21.52
2023-04-18T12:58:56.366Z,17.10
2023-04-18T13:01:25.857Z,14.25
2023-04-18T13:04:08.340Z,14.02
2023-04-18T13:06:41.014Z,18.02
2023-04-18T13:09:11.087Z,16.00
2023-04-18T13:11:40.668Z,14.57
2023-04-18T13:14:10.098Z,19.42
2023-04-18T13:16:41.111Z,16.90
2023-04-18T13:19:12.964Z,16.23
2023-04-18T13:21:45.309Z,20.00
2023-04-18T13:24:15.061Z,16.70
2023-04-18T13:26:44.671Z,19.63
2023-04-18T13:29:14.232Z,16.70
2023-04-18T13:31:46.173Z,15.70
2023-04-18T13:34:15.694Z,16.33
2023-04-18T13:36:45.950Z,18.13
2023-04-18T13:39:16.282Z,17.80
2023-04-18T13:41:46.064Z,14.75
2023-04-18T13:44:15.450Z,19.30
2023-04-18T13:46:44.845Z,16.02
2023-04-18T13:49:14.483Z,16.33
2023-04-18T13:51:44.014Z,18.23
2023-04-18T13:54:15.452Z,17.13
2023-04-18T13:56:45.478Z,18.27
2023-04-18T13:59:15.019Z,17.17
2023-04-18T14:01:45.525Z,17.52
2023-04-18T14:04:15.231Z,17.98
2023-04-18T14:06:45.597Z,16.58
2023-04-18T14:09:16.548Z,15.35
2023-04-18T14:11:46.039Z,15.77
2023-04-18T14:14:15.430Z,16.65
2023-04-18T14:16:44.890Z,16.63
2023-04-18T14:19:14.583Z,17.75
2023-04-18T14:21:44.120Z,18.48
2023-04-18T14:24:13.573Z,20.45
2023-04-18T14:26:42.960Z,15.85
2023-04-18T14:29:12.640Z,19.42
2023-04-18T14:31:42.252Z,16.23
2023-04-18T14:34:11.915Z,18.27
2023-04-18T14:36:41.389Z,18.35
2023-04-18T14:39:11.204Z,16.15
2023-04-18T14:41:40.833Z,18.30
2023-04-18T14:44:10.290Z,17.20
2023-04-18T14:46:39.756Z,19.35
2023-04-18T14:49:09.187Z,15.13
2023-04-18T14:51:38.699Z,16.90
2023-04-18T14:54:08.100Z,18.45
2023-04-18T14:56:37.578Z,19.17
2023-04-18T14:59:07.008Z,15.57
2023-04-18T15:01:36.572Z,16.30
2023-04-18T15:06:55.283Z,18.83
2023-04-18T15:09:24.731Z,14.68
2023-04-18T15:11:58.394Z,14.27
2023-04-18T15:14:27.826Z,16.67
2023-04-18T15:16:57.471Z,15.05
2023-04-18T15:19:26.968Z,16.98
2023-04-18T15:21:56.345Z,16.92
2023-04-18T15:24:26.438Z,17.65
2023-04-18T15:26:55.911Z,15.23
2023-04-18T15:29:25.292Z,15.55
2023-04-18T15:31:54.862Z,17.08
2023-04-18T15:34:24.353Z,15.77
2023-04-18T15:36:54.002Z,15.85
2023-04-18T15:39:24.141Z,16.00
2023-04-18T15:41:57.243Z,16.50
2023-04-18T15:44:26.741Z,15.10
2023-04-18T15:46:56.150Z,16.98
2023-04-18T15:49:25.949Z,18.67
2023-04-18T15:51:56.907Z,19.02
2023-04-18T15:54:26.332Z,15.32
2023-04-18T15:56:55.768Z,16.60
2023-04-18T15:59:25.178Z,15.75
2023-04-18T16:01:54.677Z,21.63
2023-04-18T16:04:24.384Z,17.20
2023-04-18T16:06:54.203Z,16.38
2023-04-18T16:09:23.633Z,17.15
2023-04-18T16:11:53.070Z,16.73
2023-04-18T16:14:22.525Z,14.95
2023-04-18T16:16:53.844Z,16.13
2023-04-18T16:19:23.243Z,15.32
2023-04-18T16:21:52.664Z,16.77
2023-04-18T16:24:22.091Z,15.77
2023-04-18T16:26:52.304Z,13.77
2023-04-18T16:29:21.829Z,17.75
2023-04-18T16:31:51.717Z,15.32
2023-04-18T16:34:21.379Z,14.82
2023-04-18T16:36:51.301Z,15.63
2023-04-18T16:39:21.101Z,14.02
2023-04-18T16:41:51.354Z,14.95
2023-04-18T16:44:20.693Z,17.02
2023-04-18T16:46:50.202Z,13.65
2023-04-18T16:49:20.647Z,13.48
2023-04-18T16:51:50.113Z,14.32
2023-04-18T16:54:19.489Z,14.30
2023-04-18T16:56:48.927Z,13.43
2023-04-18T16:59:18.363Z,15.27
2023-04-18T17:01:47.782Z,14.18
2023-04-18T17:04:18.241Z,15.02
2023-04-18T17:06:48.129Z,13.10
2023-04-18T17:09:18.235Z,14.23
2023-04-18T17:11:47.760Z,17.80
2023-04-18T17:14:17.574Z,15.57
2023-04-18T17:16:47.180Z,13.30
2023-04-18T17:19:16.822Z,17.48
2023-04-18T17:21:46.549Z,15.43
2023-04-18T17:24:18.780Z,14.55
2023-04-18T17:26:48.217Z,17.02
2023-04-18T17:29:18.545Z,14.18
2023-04-18T17:31:48.143Z,14.07
2023-04-18T17:34:17.653Z,13.18
2023-04-18T17:36:47.056Z,15.20
2023-04-18T17:39:17.816Z,14.88
2023-04-18T17:41:47.849Z,14.30
2023-04-18T17:44:17.211Z,13.98
2023-04-18T17:46:48.200Z,14.57
2023-04-18T17:49:18.384Z,13.63
2023-04-18T17:51:47.809Z,15.57
2023-04-18T17:54:17.159Z,13.18
2023-04-18T17:56:46.538Z,14.45
2023-04-18T17:59:16.139Z,13.60
2023-04-18T18:01:45.605Z,13.80
2023-04-18T18:04:15.864Z,13.57
2023-04-18T18:06:45.317Z,14.13
2023-04-18T18:09:14.827Z,13.77
2023-04-18T18:11:44.336Z,13.90
2023-04-18T18:14:13.730Z,13.93
2023-04-18T18:16:43.155Z,13.52
2023-04-18T18:19:14.693Z,13.02
2023-04-18T18:21:44.295Z,14.27
2023-04-18T18:24:14.162Z,12.95
2023-04-18T18:26:46.015Z,14.68
2023-04-18T18:29:15.715Z,15.60
2023-04-18T18:31:45.454Z,15.68
2023-04-18T18:34:14.916Z,15.57
2023-04-18T18:36:44.336Z,14.02
2023-04-18T18:39:14.721Z,15.95
2023-04-18T18:41:44.279Z,15.88
2023-04-18T18:44:16.002Z,14.00
2023-04-18T18:46:45.614Z,14.13
2023-04-18T18:49:15.157Z,14.55
2023-04-18T18:51:44.769Z,13.65
2023-04-18T18:54:14.202Z,11.00
2023-04-18T18:56:45.548Z,15.45
2023-04-18T18:59:15.945Z,14.25
2023-04-18T19:01:45.780Z,15.40
2023-04-18T19:04:15.322Z,12.75
2023-04-18T19:06:44.861Z,12.88
2023-04-18T19:09:15.047Z,12.82
2023-04-18T19:11:44.674Z,13.95
2023-04-18T19:14:14.399Z,14.13
2023-04-18T19:16:46.147Z,13.45
2023-04-18T19:19:17.429Z,11.82
2023-04-18T19:21:47.509Z,15.00
2023-04-18T19:24:16.983Z,11.80
2023-04-18T19:26:46.529Z,11.68
2023-04-18T19:29:17.827Z,14.05
2023-04-18T19:31:47.278Z,14.93
2023-04-18T19:34:19.022Z,12.52
2023-04-18T19:36:48.453Z,14.38
2023-04-18T19:39:18.451Z,12.85
2023-04-18T19:41:47.890Z,11.40
2023-04-18T19:44:17.298Z,14.40
2023-04-18T19:46:46.691Z,13.50
2023-04-18T19:49:16.333Z,13.18
2023-04-18T19:51:45.918Z,12.30
2023-04-18T19:54:15.329Z,13.23
2023-04-18T19:56:44.717Z,14.23
2023-04-18T19:59:14.401Z,12.27
2023-04-18T20:01:43.973Z,12.98
2023-04-18T20:04:13.898Z,13.15
2023-04-18T20:06:43.744Z,14.27
2023-04-18T20:09:17.068Z,17.45
2023-04-18T20:11:46.754Z,18.38
2023-04-18T20:14:16.531Z,16.45
2023-04-18T20:16:46.788Z,14.18
2023-04-18T20:19:17.939Z,12.88
2023-04-18T20:21:47.820Z,13.98
2023-04-18T20:24:17.244Z,13.52
2023-04-18T20:26:46.742Z,14.20
2023-04-18T20:29:16.481Z,12.63
2023-04-18T20:31:46.228Z,14.80
2023-04-18T20:34:15.950Z,14.02
2023-04-18T20:36:45.334Z,11.80
2023-04-18T20:39:15.735Z,13.85
2023-04-18T20:41:47.467Z,11.52
2023-04-18T20:44:16.997Z,11.50
2023-04-18T20:46:46.612Z,12.68
2023-04-18T20:49:16.236Z,11.70
2023-04-18T20:51:45.933Z,11.23
2023-04-18T20:54:15.531Z,14.13
2023-04-18T20:56:45.097Z,12.80
2023-04-18T20:59:14.491Z,9.55
2023-04-18T21:01:44.004Z,12.77
2023-04-18T21:04:15.028Z,12.93
2023-04-18T21:06:44.711Z,11.70
2023-04-18T21:09:14.360Z,13.65
2023-04-18T21:11:43.963Z,9.57
2023-04-18T21:14:13.794Z,13.50
2023-04-18T21:16:43.745Z,13.05
2023-04-18T21:19:19.555Z,11.80
2023-04-18T21:21:48.972Z,11.10
2023-04-18T21:24:18.689Z,13.18
2023-04-18T21:26:48.074Z,12.32
2023-04-18T21:29:17.433Z,11.98
2023-04-18T21:31:49.084Z,12.10
2023-04-18T21:34:18.676Z,13.10
2023-04-18T21:36:48.040Z,12.20
2023-04-18T21:39:17.419Z,14.35
2023-04-18T21:41:47.150Z,13.70
2023-04-18T21:44:18.908Z,13.25
2023-04-18T21:46:48.571Z,12.60
2023-04-18T21:49:18.078Z,13.93
2023-04-18T21:51:49.050Z,12.65
2023-04-18T21:54:18.637Z,12.98
2023-04-18T21:56:48.035Z,14.00
2023-04-18T21:59:17.422Z,14.45
2023-04-18T22:01:46.811Z,13.85
2023-04-18T22:04:16.530Z,15.70
2023-04-18T22:06:46.253Z,13.43
2023-04-18T22:09:19.286Z,13.52
2023-04-18T22:11:48.749Z,14.85
2023-04-18T22:14:19.176Z,14.25
2023-04-18T22:16:50.203Z,13.45
2023-04-18T22:19:20.417Z,14.52
2023-04-18T22:21:49.773Z,15.20
2023-04-18T22:24:19.824Z,16.33
2023-04-18T22:26:49.268Z,14.60
2023-04-18T22:29:18.719Z,13.77
2023-04-18T22:31:48.148Z,14.20
2023-04-18T22:34:17.708Z,12.55
2023-04-18T22:36:47.243Z,11.43
2023-04-18T22:39:16.660Z,14.90
2023-04-18T22:41:46.182Z,16.42
2023-04-18T22:44:15.840Z,12.77
2023-04-18T22:46:46.001Z,14.40
2023-04-18T22:49:15.718Z,13.68
2023-04-18T22:51:46.609Z,14.02
2023-04-18T22:54:16.262Z,14.15
2023-04-18T22:56:45.863Z,14.80
2023-04-18T22:59:15.281Z,14.43
2023-04-18T23:01:44.805Z,14.18
2023-04-18T23:04:14.516Z,13.07
2023-04-18T23:06:44.473Z,14.43
2023-04-18T23:09:13.920Z,14.52
2023-04-18T23:11:43.501Z,14.85
2023-04-18T23:14:12.981Z,17.00
2023-04-18T23:16:43.902Z,15.75
2023-04-18T23:19:13.343Z,13.60
2023-04-18T23:21:42.757Z,14.02
2023-04-18T23:24:12.563Z,16.52
2023-04-18T23:26:43.076Z,14.38
2023-04-18T23:29:12.571Z,14.93
2023-04-18T23:31:42.026Z,16.85
2023-04-18T23:34:12.486Z,13.93
2023-04-18T23:36:42.525Z,13.90
2023-04-18T23:39:11.994Z,16.75
2023-04-18T23:41:41.489Z,14.00
2023-04-18T23:44:10.870Z,13.60
2023-04-18T23:46:40.287Z,15.13
2023-04-18T23:49:09.684Z,16.45
2023-04-18T23:51:39.079Z,15.57
2023-04-18T23:54:08.976Z,15.18
2023-04-18T23:56:38.641Z,13.77
2023-04-18T23:59:08.067Z,12.93
